Terminal Aerodrome Forecast
Issued by NWS Houston/Galveston, TX

Home | Current Version | Previous Version | Text Only | Print | Product List | Glossary On
Versions: 1 2 3 4 5 6 7 8 9 10 11 12 13 14 15 16 17 18 19 20 21 22 23 24 25 26 27 28 29 30 31
000
FTUS44 KHGX 130520
TAFCLL
TAF
KCLL 130520Z 1306/1406 13005KT P6SM SCT250
     FM131000 VRB02KT P6SM SCT015
     FM131400 22005KT P6SM SKC
     FM132200 15008KT P6SM FEW050=

USA.gov is the U.S. government's official web portal to all federal, state and local government web resources and services.